Vicki Lynn — WDG2326 — position and weather

sailwx.info

Track history (hours):
 
Tides and Currents Weather Stations Pressure Air Temp Water Temp Dewpoint Dewpoint Depression Visibility Wind Speed Wind Dir Waves Ship Positions

Vicki Lynn

Owner: T K TOWING, INC, MORGAN CITY, LA. More information available from US FCC via Universal Licensing System and Coast Guard Vessel Documentation Center.

Last reported at 2018-Jul-08 21:20 UTC. Time now 2018-Jul-20 06:21 UTC.
Position N 29°36' W 090°58'.
Warning: this ship's position is 11 days out of date.

Length 18 m; draft 2.2 m.

Type: Towing. MMSI: 367514520.

Date/timePositionNaut miles runAvg speedWind from/ knotsBaromVisibWave heightAir tempDewpointWater temp
2018-Jul-08 21:20N 29°36' W 090°58'6 5.0
2018-Jul-08 20:06N 29°32' W 090°52'1 5.1
2018-Jul-08 19:55N 29°32' W 090°51'2 5.0
2018-Jul-08 19:29N 29°32' W 090°49'2 4.9
2018-Jul-08 19:00N 29°32' W 090°46'2 4.4
2018-Jul-08 18:30N 29°34' W 090°44'2 3.3
2018-Jul-08 18:00N 29°33' W 090°43'3 5.2
2018-Jul-08 17:30N 29°31' W 090°43'3 5.4
2018-Jul-08 17:00N 29°28' W 090°43'5 3.0
2018-Jul-08 15:20N 29°25' W 090°47'3 0.2
2018-Jul-07 23:41N 29°25' W 090°51'2 5.4
2018-Jul-07 23:20N 29°25' W 090°49'2 4.3
2018-Jul-07 22:54N 29°25' W 090°47'3 4.3
2018-Jul-07 22:15N 29°25' W 090°44'2 8.4
2018-Jul-07 22:00N 29°27' W 090°43'4 8.4
2018-Jul-07 21:30N 29°31' W 090°43'4 7.5
2018-Jul-07 21:00N 29°35' W 090°43'2 4.7
2018-Jul-07 20:30N 29°37' W 090°41'4 7.1
2018-Jul-07 20:00N 29°35' W 090°38'3 6.5
2018-Jul-07 19:30N 29°34' W 090°34'4 7.2
2018-Jul-07 19:00N 29°34' W 090°30'4 0.2
2018-Jul-07 03:46N 29°33' W 090°26'2 6.4
2018-Jul-07 03:25N 29°34' W 090°29'3 6.4
2018-Jul-07 03:00N 29°34' W 090°32'3 6.2
2018-Jul-07 02:30N 29°35' W 090°35'2 4.7
2018-Jul-07 02:00N 29°35' W 090°38'2 4.6
2018-Jul-07 01:30N 29°36' W 090°40'2 4.5
2018-Jul-07 01:00N 29°36' W 090°43'3 5.3
2018-Jul-07 00:30N 29°33' W 090°43'3 6.3
2018-Jul-07 00:00N 29°30' W 090°43'3 6.3
2018-Jul-06 23:28N 29°27' W 090°43'4 2.7
2018-Jul-06 21:56N 29°25' W 090°47'0 0.0
2018-Jul-06 20:32N 29°25' W 090°47'0 0.0
2018-Jul-06 17:15N 29°25' W 090°47'0 0.0
2018-Jul-06 16:59N 29°25' W 090°47'0 0.0
2018-Jul-06 16:28N 29°25' W 090°47'0 0.0
2018-Jul-06 16:00N 29°25' W 090°47'0 0.0
2018-Jul-06 15:11N 29°25' W 090°47'0 0.2
2018-Jul-06 14:59N 29°25' W 090°47'0 0.0
2018-Jul-06 14:30N 29°25' W 090°47'1 0.0
2018-Jul-05 23:00N 29°25' W 090°47'1 1.2
2018-Jul-05 22:30N 29°25' W 090°47'0 0.0
2018-Jul-05 22:00N 29°25' W 090°47'0 0.2
2018-Jul-05 21:30N 29°25' W 090°47'1 0.6
2018-Jul-05 20:42N 29°25' W 090°47'0 0.0
2018-Jul-05 20:30N 29°25' W 090°47'0 0.0
2018-Jul-05 19:50N 29°25' W 090°47'0 0.0
2018-Jul-05 09:12N 29°25' W 090°47'0 0.0
2018-Jul-05 09:00N 29°25' W 090°47'0 0.0
2018-Jul-05 07:52N 29°25' W 090°47'0 0.0
2018-Jul-05 07:12N 29°25' W 090°47'0 0.0
2018-Jul-05 06:33N 29°25' W 090°47'0 0.0
2018-Jul-05 06:25N 29°25' W 090°47'0 0.0
2018-Jul-05 06:00N 29°25' W 090°47'0 0.0
2018-Jul-05 05:30N 29°25' W 090°47'0 0.0
2018-Jul-05 04:59N 29°25' W 090°47'0 0.0
2018-Jul-05 04:02N 29°25' W 090°47'0 0.0
2018-Jul-05 03:52N 29°25' W 090°47'0 0.0
2018-Jul-05 03:28N 29°25' W 090°47'0 0.0
2018-Jul-05 02:19N 29°25' W 090°47'0 0.0
2018-Jul-04 14:32N 29°25' W 090°47'0 0.0
2018-Jul-04 13:22N 29°25' W 090°47'0 0.0
2018-Jul-04 13:00N 29°25' W 090°47'0 0.0
2018-Jul-04 12:30N 29°25' W 090°47'0 0.0
2018-Jul-04 12:00N 29°25' W 090°47'0 0.2
2018-Jul-04 11:29N 29°25' W 090°47'2 2.9
2018-Jul-04 10:57N 29°24' W 090°45'2 0.3
2018-Jul-04 05:54N 29°24' W 090°44'3 6.3
2018-Jul-04 05:30N 29°27' W 090°43'3 6.4
2018-Jul-04 05:00N 29°30' W 090°43'3 6.2
2018-Jul-04 04:30N 29°33' W 090°42'3 5.8
2018-Jul-04 04:00N 29°36' W 090°43'2 3.4
2018-Jul-04 03:30N 29°36' W 090°41'2 4.7
2018-Jul-04 03:00N 29°35' W 090°38'2 4.2
2018-Jul-04 02:30N 29°35' W 090°36'3 5.9
2018-Jul-04 02:00N 29°34' W 090°33'  
Track history (hours):
 
Tides and Currents Weather Stations Pressure Air Temp Water Temp Dewpoint Dewpoint Depression Visibility Wind Speed Wind Dir Waves Ship Positions

Vicki Lynn

Owner: T K TOWING, INC, MORGAN CITY, LA. More information available from US FCC via Universal Licensing System and Coast Guard Vessel Documentation Center.

Last reported at 2018-Jul-08 21:20 UTC. Time now 2018-Jul-20 06:21 UTC.
Position N 29°36' W 090°58'.
Warning: this ship's position is 11 days out of date.

Length 18 m; draft 2.2 m.

Type: Towing. MMSI: 367514520.

Date/timePositionNaut miles runAvg speedWind from/ knotsBaromVisibWave heightAir tempDewpointWater temp
2018-Jul-08 21:20N 29°36' W 090°58'6 5.0
2018-Jul-08 20:06N 29°32' W 090°52'1 5.1
2018-Jul-08 19:55N 29°32' W 090°51'2 5.0
2018-Jul-08 19:29N 29°32' W 090°49'2 4.9
2018-Jul-08 19:00N 29°32' W 090°46'2 4.4
2018-Jul-08 18:30N 29°34' W 090°44'2 3.3
2018-Jul-08 18:00N 29°33' W 090°43'3 5.2
2018-Jul-08 17:30N 29°31' W 090°43'3 5.4
2018-Jul-08 17:00N 29°28' W 090°43'5 3.0
2018-Jul-08 15:20N 29°25' W 090°47'3 0.2
2018-Jul-07 23:41N 29°25' W 090°51'2 5.4
2018-Jul-07 23:20N 29°25' W 090°49'2 4.3
2018-Jul-07 22:54N 29°25' W 090°47'3 4.3
2018-Jul-07 22:15N 29°25' W 090°44'2 8.4
2018-Jul-07 22:00N 29°27' W 090°43'4 8.4
2018-Jul-07 21:30N 29°31' W 090°43'4 7.5
2018-Jul-07 21:00N 29°35' W 090°43'2 4.7
2018-Jul-07 20:30N 29°37' W 090°41'4 7.1
2018-Jul-07 20:00N 29°35' W 090°38'3 6.5
2018-Jul-07 19:30N 29°34' W 090°34'4 7.2
2018-Jul-07 19:00N 29°34' W 090°30'4 0.2
2018-Jul-07 03:46N 29°33' W 090°26'2 6.4
2018-Jul-07 03:25N 29°34' W 090°29'3 6.4
2018-Jul-07 03:00N 29°34' W 090°32'3 6.2
2018-Jul-07 02:30N 29°35' W 090°35'2 4.7
2018-Jul-07 02:00N 29°35' W 090°38'2 4.6
2018-Jul-07 01:30N 29°36' W 090°40'2 4.5
2018-Jul-07 01:00N 29°36' W 090°43'3 5.3
2018-Jul-07 00:30N 29°33' W 090°43'3 6.3
2018-Jul-07 00:00N 29°30' W 090°43'3 6.3
2018-Jul-06 23:28N 29°27' W 090°43'4 2.7
2018-Jul-06 21:56N 29°25' W 090°47'0 0.0
2018-Jul-06 20:32N 29°25' W 090°47'0 0.0
2018-Jul-06 17:15N 29°25' W 090°47'0 0.0
2018-Jul-06 16:59N 29°25' W 090°47'0 0.0
2018-Jul-06 16:28N 29°25' W 090°47'0 0.0
2018-Jul-06 16:00N 29°25' W 090°47'0 0.0
2018-Jul-06 15:11N 29°25' W 090°47'0 0.2
2018-Jul-06 14:59N 29°25' W 090°47'0 0.0
2018-Jul-06 14:30N 29°25' W 090°47'1 0.0
2018-Jul-05 23:00N 29°25' W 090°47'1 1.2
2018-Jul-05 22:30N 29°25' W 090°47'0 0.0
2018-Jul-05 22:00N 29°25' W 090°47'0 0.2
2018-Jul-05 21:30N 29°25' W 090°47'1 0.6
2018-Jul-05 20:42N 29°25' W 090°47'0 0.0
2018-Jul-05 20:30N 29°25' W 090°47'0 0.0
2018-Jul-05 19:50N 29°25' W 090°47'0 0.0
2018-Jul-05 09:12N 29°25' W 090°47'0 0.0
2018-Jul-05 09:00N 29°25' W 090°47'0 0.0
2018-Jul-05 07:52N 29°25' W 090°47'0 0.0
2018-Jul-05 07:12N 29°25' W 090°47'0 0.0
2018-Jul-05 06:33N 29°25' W 090°47'0 0.0
2018-Jul-05 06:25N 29°25' W 090°47'0 0.0
2018-Jul-05 06:00N 29°25' W 090°47'0 0.0
2018-Jul-05 05:30N 29°25' W 090°47'0 0.0
2018-Jul-05 04:59N 29°25' W 090°47'0 0.0
2018-Jul-05 04:02N 29°25' W 090°47'0 0.0
2018-Jul-05 03:52N 29°25' W 090°47'0 0.0
2018-Jul-05 03:28N 29°25' W 090°47'0 0.0
2018-Jul-05 02:19N 29°25' W 090°47'0 0.0
2018-Jul-04 14:32N 29°25' W 090°47'0 0.0
2018-Jul-04 13:22N 29°25' W 090°47'0 0.0
2018-Jul-04 13:00N 29°25' W 090°47'0 0.0
2018-Jul-04 12:30N 29°25' W 090°47'0 0.0
2018-Jul-04 12:00N 29°25' W 090°47'0 0.2
2018-Jul-04 11:29N 29°25' W 090°47'2 2.9
2018-Jul-04 10:57N 29°24' W 090°45'2 0.3
2018-Jul-04 05:54N 29°24' W 090°44'3 6.3
2018-Jul-04 05:30N 29°27' W 090°43'3 6.4
2018-Jul-04 05:00N 29°30' W 090°43'3 6.2
2018-Jul-04 04:30N 29°33' W 090°42'3 5.8
2018-Jul-04 04:00N 29°36' W 090°43'2 3.4
2018-Jul-04 03:30N 29°36' W 090°41'2 4.7
2018-Jul-04 03:00N 29°35' W 090°38'2 4.2
2018-Jul-04 02:30N 29°35' W 090°36'3 5.9
2018-Jul-04 02:00N 29°34' W 090°33'  

Dump ship's entire track history